Terminal Aerodrome Forecast
Issued by NWS

Home | Current Version | Previous Version | Text Only | Print | Product List | Glossary Off
Versions: 1 2 3 4 5 6 7 8 9 10 11 12 13 14 15 16 17 18 19 20 21 22 23 24 25

000
FTUS43 KPAH 300300 AAC
TAFCGI
TAF AMD
KCGI 300328Z 3003/3024 24014G22KT 6SM RA VCTS FEW028CB BKN060
     FM300400 21006KT 6SM SHRA OVC040
     FM300500 16004KT P6SM VCTS BKN035CB
     FM300900 16004KT 4SM SHRA BR BKN050
     FM301500 20007KT 3SM SHRA BR OVC035=

USA.gov is the U.S. government's official web portal to all federal, state and local government web resources and services.